Time;durP1;ratioP1;P1;durP2;ratioP2;P2;SDS_P1;SDS_P2;PMS_P1;PMS_P2;Temp;Humidity;BMP_temperature;BMP_pressure;BME280_temperature;BME280_humidity;BME280_pressure;Samples;Min_cycle;Max_cycle;Signal;HPM_P1;HPM_P2
2021/07/05 00:01:18;;;;;;;1.00;1.00;;;26.60;47.00;;;30.47;31.44;100579.16;5113658;28;20054;-54
2021/07/05 00:03:45;;;;;;;0.93;0.93;;;26.60;47.00;;;30.46;31.20;100581.03;5113964;28;20407;-53
2021/07/05 00:06:11;;;;;;;1.10;1.10;;;26.60;47.00;;;30.43;31.43;100575.97;5113651;28;20058;-52
2021/07/05 00:08:37;;;;;;;0.90;0.90;;;26.60;47.10;;;30.42;31.30;100576.13;5113639;28;20044;-53
2021/07/05 00:11:03;;;;;;;1.20;1.10;;;26.50;47.00;;;30.43;31.30;100580.53;5111488;28;20403;-49
2021/07/05 00:13:31;;;;;;;1.30;1.20;;;26.60;47.10;;;30.42;31.47;100581.50;5113628;28;20046;-50
2021/07/05 00:15:57;;;;;;;1.10;1.00;;;26.60;47.70;;;30.40;31.39;100587.06;5113932;28;20129;-49
2021/07/05 00:18:24;;;;;;;1.30;1.20;;;26.60;47.20;;;30.42;31.35;100589.59;5094977;28;20444;-48
2021/07/05 00:20:50;;;;;;;1.15;1.05;;;26.60;47.20;;;30.40;31.40;100589.78;5113745;28;20177;-53
2021/07/05 00:23:16;;;;;;;1.00;0.98;;;26.50;47.10;;;30.39;31.45;100592.63;5113335;28;20043;-53
2021/07/05 00:25:44;;;;;;;0.90;0.90;;;26.50;47.10;;;30.37;31.41;100583.88;5113769;28;20052;-53
2021/07/05 00:28:10;;;;;;;0.88;0.88;;;26.50;47.20;;;30.35;31.48;100581.28;5112497;28;20047;-54
2021/07/05 00:30:37;;;;;;;1.10;1.08;;;26.50;47.20;;;30.37;31.58;100587.44;5113264;28;20040;-52
2021/07/05 00:33:03;;;;;;;1.00;1.00;;;26.50;47.20;;;30.34;31.43;100579.63;5113154;28;20039;-53
2021/07/05 00:35:30;;;;;;;1.15;1.10;;;26.50;47.20;;;30.35;31.55;100588.56;5094249;28;20052;-53
2021/07/05 00:37:57;;;;;;;1.20;1.10;;;26.50;47.20;;;30.34;31.57;100587.72;5113216;28;20043;-52
2021/07/05 00:40:25;;;;;;;1.17;1.10;;;26.50;47.20;;;30.32;31.51;100572.69;5113152;28;20100;-52
2021/07/05 00:42:52;;;;;;;1.33;1.23;;;26.50;47.30;;;30.31;31.53;100574.56;5094887;28;20043;-52
2021/07/05 00:45:22;;;;;;;1.05;1.05;;;26.50;47.30;;;30.30;31.59;100568.31;5112061;28;20078;-49
2021/07/05 00:47:48;;;;;;;1.25;1.20;;;26.50;47.30;;;30.30;31.62;100560.22;5113195;28;20464;-51
2021/07/05 00:50:18;;;;;;;1.13;1.05;;;26.50;47.30;;;30.31;31.46;100574.56;5113059;28;20075;-52
2021/07/05 00:52:47;;;;;;;1.00;1.00;;;26.50;47.40;;;30.27;31.47;100567.78;5112883;28;20044;-50
2021/07/05 00:55:13;;;;;;;1.20;1.13;;;26.40;47.30;;;30.28;31.58;100554.13;5112878;28;20479;-52
2021/07/05 00:57:40;;;;;;;0.80;0.80;;;26.50;47.40;;;30.29;31.71;100563.09;5113058;28;20395;-53
2021/07/05 01:00:13;;;;;;;1.33;1.23;;;26.40;47.40;;;30.26;31.63;100561.56;5113487;28;20459;-53
2021/07/05 01:02:40;;;;;;;1.40;1.30;;;26.40;47.40;;;30.21;31.60;100555.81;5113027;28;20070;-52
2021/07/05 01:05:08;;;;;;;1.25;1.15;;;26.40;47.40;;;30.23;31.69;100553.78;5113435;28;20052;-52
2021/07/05 01:07:34;;;;;;;1.00;1.00;;;26.40;47.50;;;30.25;31.57;100557.16;5112993;28;20172;-53
2021/07/05 01:10:01;;;;;;;1.10;1.10;;;26.40;47.50;;;30.24;31.58;100552.78;5112598;28;20479;-51
2021/07/05 01:12:26;;;;;;;1.20;1.10;;;26.40;47.50;;;30.23;31.69;100542.16;5112479;28;20056;-47
2021/07/05 01:14:52;;;;;;;1.20;1.10;;;26.40;47.50;;;30.22;31.57;100535.06;5112757;28;20066;-48
2021/07/05 01:17:18;;;;;;;1.10;1.00;;;26.40;47.50;;;30.20;31.62;100545.19;5112667;28;20044;-53
2021/07/05 01:19:51;;;;;;;1.00;1.00;;;26.30;47.50;;;30.20;31.61;100545.19;5112300;28;20047;-51
2021/07/05 01:22:18;;;;;;;1.30;1.20;;;26.30;47.50;;;30.20;31.52;100543.31;5112626;28;20516;-52
2021/07/05 01:24:47;;;;;;;1.27;1.17;;;26.30;47.50;;;30.18;31.59;100541.81;5112569;28;20052;-53
2021/07/05 01:27:13;;;;;;;1.30;1.25;;;26.40;47.50;;;30.20;31.69;100546.03;5112545;28;20411;-50
2021/07/05 01:29:40;;;;;;;1.10;1.10;;;26.30;47.50;;;30.21;31.74;100538.78;5110225;28;20411;-52
2021/07/05 01:32:07;;;;;;;1.10;1.10;;;26.30;47.50;;;30.19;31.75;100549.75;5112303;28;20483;-51
2021/07/05 01:34:33;;;;;;;1.02;1.00;;;26.30;47.60;;;30.17;31.80;100537.41;5112438;28;20126;-53
2021/07/05 01:36:59;;;;;;;1.15;1.10;;;26.30;47.60;;;30.18;31.74;100544.50;5112388;28;20093;-51
2021/07/05 01:39:25;;;;;;;1.30;1.20;;;26.30;47.60;;;30.17;31.87;100538.28;5115144;28;20500;-53
2021/07/05 01:41:51;;;;;;;1.30;1.20;;;26.30;47.60;;;30.15;31.60;100528.66;5116137;28;20134;-52
2021/07/05 01:44:17;;;;;;;0.90;0.90;;;26.30;47.60;;;30.14;31.69;100524.25;5115959;28;20108;-55
2021/07/05 01:46:43;;;;;;;1.42;1.33;;;26.30;47.60;;;30.14;31.75;100533.22;5116163;28;20403;-52
2021/07/05 01:49:10;;;;;;;1.00;1.00;;;26.30;47.70;;;30.12;31.96;100532.50;5115885;28;20044;-50
2021/07/05 01:51:36;;;;;;;1.23;1.15;;;26.30;47.70;;;30.13;31.85;100531.50;5115717;28;20070;-54
2021/07/05 01:54:03;;;;;;;1.00;1.00;;;26.30;47.70;;;30.11;31.73;100537.06;5116227;28;20472;-51
2021/07/05 01:56:28;;;;;;;1.00;1.00;;;26.30;47.70;;;30.10;31.74;100543.50;5115637;28;20069;-53
2021/07/05 01:58:54;;;;;;;1.00;1.00;;;26.30;47.70;;;30.10;31.81;100532.69;5115582;28;20043;-54
2021/07/05 02:01:20;;;;;;;1.30;1.20;;;26.30;47.70;;;30.11;31.95;100541.63;5115541;28;20071;-50
2021/07/05 02:03:46;;;;;;;0.80;0.80;;;26.30;47.70;;;30.08;31.88;100541.94;5115526;28;20047;-49
2021/07/05 02:06:12;;;;;;;0.90;0.90;;;26.30;47.70;;;30.10;31.81;100548.88;5115636;28;20054;-53
2021/07/05 02:08:38;;;;;;;1.02;1.02;;;26.30;47.80;;;30.09;31.86;100549.03;5114222;28;20475;-52
2021/07/05 02:11:05;;;;;;;0.90;0.90;;;26.30;47.80;;;30.08;31.78;100541.94;5115327;28;20076;-52
2021/07/05 02:13:35;;;;;;;1.10;1.10;;;26.30;47.80;;;30.06;32.11;100549.38;5115556;28;20043;-50
2021/07/05 02:16:04;;;;;;;1.20;1.10;;;26.20;47.70;;;30.07;31.77;100551.03;5115753;28;20058;-51
2021/07/05 02:18:31;;;;;;;1.10;1.00;;;26.30;47.80;;;30.08;31.84;100544.63;5096291;28;20127;-54
2021/07/05 02:21:02;;;;;;;1.00;1.00;;;26.20;47.80;;;30.06;31.79;100536.72;5115337;28;20054;-50
2021/07/05 02:23:28;;;;;;;1.20;1.10;;;26.20;47.80;;;30.05;31.83;100543.09;5114281;28;20048;-51
2021/07/05 02:25:54;;;;;;;0.95;0.95;;;26.20;47.80;;;30.07;32.03;100542.94;5115180;28;20047;-50
2021/07/05 02:28:26;;;;;;;1.02;1.00;;;26.20;47.80;;;30.05;32.11;100547.66;5114934;28;20406;-51
2021/07/05 02:30:54;;;;;;;1.20;1.10;;;26.20;47.80;;;30.04;31.86;100544.13;5114208;28;20056;-49
2021/07/05 02:33:25;;;;;;;0.95;0.95;;;26.20;47.80;;;30.02;31.97;100540.75;5113703;28;20134;-54
2021/07/05 02:35:53;;;;;;;0.80;0.80;;;26.20;47.80;;;30.03;32.04;100536.19;5115238;28;20044;-49
2021/07/05 02:38:21;;;;;;;0.95;0.95;;;26.20;47.80;;;30.02;32.16;100529.09;5115090;28;20471;-53
2021/07/05 02:40:51;;;;;;;1.00;1.00;;;26.20;47.80;;;30.02;32.07;100534.50;5114735;28;20491;-54
2021/07/05 02:43:18;;;;;;;0.90;0.90;;;26.20;47.80;;;29.99;32.08;100521.34;5115041;28;20107;-52
2021/07/05 02:45:46;;;;;;;0.95;0.95;;;26.20;47.90;;;29.99;32.02;100522.22;5096745;28;20082;-50
2021/07/05 02:48:21;;;;;;;1.30;1.20;;;26.20;47.90;;;29.98;32.01;100536.69;5115094;28;20043;-50
2021/07/05 02:50:51;;;;;;;1.00;1.00;;;26.20;47.90;;;29.97;32.03;100521.53;5093679;28;20090;-50
2021/07/05 02:53:17;;;;;;;1.20;1.10;;;26.20;47.90;;;30.00;31.96;100528.44;5114759;28;20047;-49
2021/07/05 02:55:43;;;;;;;1.02;1.02;;;26.20;47.90;;;29.97;31.95;100523.38;5114773;28;20042;-47
2021/07/05 02:58:09;;;;;;;1.00;1.00;;;26.10;47.90;;;29.97;32.03;100521.53;5094821;28;20049;-48
2021/07/05 03:00:48;;;;;;;1.00;1.00;;;26.10;47.90;;;29.94;32.19;100535.34;5114871;28;20044;-50
2021/07/05 03:03:15;;;;;;;1.10;1.08;;;26.10;47.90;;;29.96;32.08;100538.69;5115014;28;20456;-52
2021/07/05 03:05:41;;;;;;;1.10;1.10;;;26.10;47.90;;;29.93;32.12;100544.41;5114634;28;20048;-49
2021/07/05 03:08:07;;;;;;;0.95;0.95;;;26.10;47.90;;;29.94;32.11;100548.81;5114609;28;20109;-49
2021/07/05 03:10:36;;;;;;;1.30;1.20;;;26.10;47.90;;;29.91;32.06;100546.44;5114489;28;20476;-51
2021/07/05 03:13:09;;;;;;;1.00;1.00;;;26.10;47.90;;;29.91;32.04;100551.81;5115059;28;20039;-52
2021/07/05 03:15:35;;;;;;;0.90;0.90;;;26.10;47.90;;;29.92;32.15;100546.28;5114190;28;20086;-52
2021/07/05 03:18:02;;;;;;;1.00;1.00;;;26.10;47.90;;;29.91;31.95;100544.56;5114387;28;20047;-48
2021/07/05 03:20:31;;;;;;;1.15;1.08;;;26.10;48.00;;;29.87;32.15;100539.66;5114281;28;20134;-51
2021/07/05 03:22:59;;;;;;;1.20;1.10;;;26.10;48.00;;;29.91;32.14;100544.56;5114846;28;20100;-51
2021/07/05 03:25:27;;;;;;;1.25;1.15;;;26.10;48.00;;;29.90;32.25;100544.72;5114324;28;20510;-50
2021/07/05 03:27:55;;;;;;;1.02;1.00;;;26.10;48.00;;;29.88;32.32;100547.59;5114423;28;20056;-52
2021/07/05 03:30:22;;;;;;;1.05;1.05;;;26.10;48.00;;;29.89;31.89;100538.50;5114264;28;20130;-49
2021/07/05 03:32:49;;;;;;;1.08;1.05;;;26.10;48.00;;;29.88;32.23;100538.66;5114093;28;20043;-53
2021/07/05 03:35:16;;;;;;;1.00;1.00;;;26.10;48.00;;;29.88;32.34;100538.66;5114684;28;20078;-48
2021/07/05 03:37:42;;;;;;;0.80;0.80;;;26.10;48.00;;;29.88;32.04;100534.09;5114109;28;20044;-50
2021/07/05 03:40:13;;;;;;;0.90;0.90;;;26.10;48.00;;;29.85;32.06;100539.81;5113997;28;20043;-45
2021/07/05 03:42:40;;;;;;;1.10;1.00;;;26.00;48.00;;;29.88;32.08;100544.06;5114084;28;20046;-53
2021/07/05 03:45:08;;;;;;;1.05;1.00;;;26.00;48.00;;;29.85;32.25;100545.22;5113990;28;20518;-50
2021/07/05 03:47:35;;;;;;;0.90;0.90;;;26.00;48.00;;;29.85;32.06;100544.38;5113860;28;20047;-48
2021/07/05 03:50:02;;;;;;;1.10;1.10;;;26.00;48.00;;;29.84;32.06;100554.31;5113725;28;20051;-47
2021/07/05 03:52:28;;;;;;;1.00;1.00;;;26.00;48.00;;;29.82;32.35;100542.88;5113748;28;20055;-50
2021/07/05 03:54:53;;;;;;;1.25;1.15;;;26.00;48.10;;;29.83;32.25;100543.69;5113454;28;20055;-49
2021/07/05 03:57:22;;;;;;;1.00;1.00;;;26.00;48.10;;;29.82;32.10;100536.59;5113887;28;20109;-52
2021/07/05 03:59:50;;;;;;;0.95;0.95;;;26.00;48.10;;;29.81;32.21;100543.84;5113852;28;20052;-47
2021/07/05 04:02:16;;;;;;;1.00;1.00;;;26.00;48.20;;;29.81;32.54;100540.31;5113504;28;20143;-49
2021/07/05 04:04:42;;;;;;;1.25;1.15;;;26.00;48.10;;;29.82;32.44;100534.78;5112136;28;20395;-48
2021/07/05 04:07:08;;;;;;;1.08;1.08;;;26.00;48.20;;;29.76;32.14;100530.00;5095431;28;20055;-53
2021/07/05 04:09:34;;;;;;;1.27;1.17;;;26.00;48.20;;;29.81;32.42;100546.56;5113504;28;20046;-49
2021/07/05 04:12:00;;;;;;;1.20;1.10;;;26.00;48.20;;;29.80;32.30;100544.84;5114067;28;20039;-52
2021/07/05 04:14:25;;;;;;;1.00;1.00;;;26.00;48.20;;;29.80;32.42;100552.94;5094999;28;20079;-49
2021/07/05 04:16:51;;;;;;;1.30;1.20;;;26.00;48.20;;;29.81;32.27;100548.41;5113924;28;20055;-52
2021/07/05 04:19:17;;;;;;;1.05;1.05;;;26.00;48.20;;;29.79;32.35;100550.41;5093323;28;20059;-54
2021/07/05 04:21:43;;;;;;;1.17;1.10;;;26.00;48.20;;;29.80;32.46;100544.00;5113728;28;20097;-53
2021/07/05 04:24:09;;;;;;;1.00;1.00;;;26.00;48.20;;;29.78;32.43;100548.72;5113391;28;20453;-52
2021/07/05 04:26:35;;;;;;;1.05;1.05;;;26.00;48.20;;;29.78;32.41;100549.56;5113745;28;20054;-46
2021/07/05 04:29:00;;;;;;;1.00;1.00;;;26.00;48.20;;;29.78;32.20;100557.66;5113247;28;20048;-50
2021/07/05 04:31:26;;;;;;;0.95;0.95;;;26.00;48.20;;;29.77;32.36;100549.69;5111876;28;20051;-46
2021/07/05 04:33:52;;;;;;;1.30;1.20;;;26.00;48.30;;;29.75;32.39;100552.53;5113097;28;20380;-47
2021/07/05 04:36:18;;;;;;;0.80;0.80;;;26.00;48.30;;;29.75;32.33;100548.03;5113543;28;20051;-46
2021/07/05 04:38:43;;;;;;;1.00;0.95;;;26.00;48.30;;;29.77;32.25;100541.59;5113429;28;20051;-51
2021/07/05 04:41:09;;;;;;;0.90;0.90;;;26.00;48.30;;;29.73;32.50;100547.31;5113078;28;20047;-48
2021/07/05 04:43:35;;;;;;;1.00;1.00;;;25.90;48.20;;;29.76;32.41;100548.84;5113404;28;20160;-51
2021/07/05 04:46:05;;;;;;;1.20;1.10;;;25.90;48.20;;;29.69;32.30;100534.34;5112883;28;20046;-50
2021/07/05 04:48:35;;;;;;;1.30;1.20;;;26.00;48.30;;;29.72;32.29;100540.25;5113388;28;20040;-47
2021/07/05 04:51:03;;;;;;;1.20;1.10;;;26.00;48.30;;;29.74;32.33;100550.88;5113247;28;20280;-51
2021/07/05 04:53:29;;;;;;;0.93;0.93;;;26.00;48.30;;;29.75;32.46;100547.16;5112959;28;20050;-49
2021/07/05 04:55:58;;;;;;;1.20;1.10;;;25.90;48.20;;;29.74;32.44;100548.19;5113003;28;20043;-51
2021/07/05 04:58:23;;;;;;;1.15;1.10;;;26.00;48.30;;;29.74;32.22;100551.72;5112992;28;20449;-50
2021/07/05 05:00:49;;;;;;;1.30;1.20;;;26.00;48.30;;;29.72;32.60;100539.38;5113293;28;20051;-51
2021/07/05 05:03:15;;;;;;;1.00;1.00;;;26.00;48.30;;;29.73;32.54;100543.78;5112865;28;20052;-47
2021/07/05 05:05:41;;;;;;;1.45;1.35;;;25.90;48.20;;;29.70;32.32;100544.09;5094447;28;20048;-48
2021/07/05 05:08:11;;;;;;;1.30;1.20;;;25.90;48.20;;;29.67;32.39;100539.91;5113073;28;20050;-51
2021/07/05 05:10:38;;;;;;;0.90;0.90;;;25.90;48.30;;;29.70;32.53;100541.41;5112770;28;20044;-50
2021/07/05 05:13:04;;;;;;;1.00;0.90;;;25.90;48.20;;;29.69;32.40;100534.34;5113132;28;20044;-51
2021/07/05 05:15:31;;;;;;;1.00;1.00;;;25.90;48.20;;;29.68;32.27;100538.03;5116358;28;20044;-49
2021/07/05 05:17:57;;;;;;;1.00;1.00;;;25.90;48.30;;;29.70;32.58;100541.41;5116226;28;20441;-50
2021/07/05 05:20:24;;;;;;;1.17;1.08;;;25.90;48.30;;;29.68;32.31;100540.72;5116242;28;20043;-48
2021/07/05 05:22:51;;;;;;;1.20;1.10;;;25.90;48.20;;;29.70;32.34;100536.00;5097857;28;20048;-47
2021/07/05 05:25:19;;;;;;;1.00;1.00;;;25.90;48.20;;;29.65;32.30;100524.88;5116048;28;20039;-51
2021/07/05 05:27:46;;;;;;;1.30;1.10;;;25.90;48.20;;;29.71;32.52;100535.84;5116249;28;20035;-50
2021/07/05 05:30:16;;;;;;;1.15;1.05;;;25.90;48.20;;;29.69;32.35;100537.88;5116345;28;20048;-50
2021/07/05 05:32:45;;;;;;;1.30;1.20;;;25.90;48.20;;;29.70;32.56;100542.28;5097642;28;20048;-52
2021/07/05 05:35:13;;;;;;;0.90;0.90;;;25.90;48.30;;;29.70;32.35;100542.28;5116328;28;20136;-48
2021/07/05 05:37:39;;;;;;;1.00;1.00;;;26.00;48.30;;;29.70;32.39;100544.09;5115949;28;20039;-50
2021/07/05 05:40:07;;;;;;;1.23;1.13;;;26.00;48.30;;;29.71;32.28;100556.59;5097863;28;20047;-53
2021/07/05 05:42:33;;;;;;;1.00;0.95;;;26.00;48.30;;;29.68;32.37;100552.34;5115146;28;20391;-53
2021/07/05 05:44:59;;;;;;;1.00;1.00;;;25.90;48.20;;;29.71;32.54;100552.03;5112977;28;20078;-48
2021/07/05 05:47:25;;;;;;;1.20;1.10;;;26.00;48.30;;;29.72;32.41;100550.16;5115700;28;20056;-48
2021/07/05 05:49:50;;;;;;;0.82;0.82;;;25.90;48.20;;;29.71;32.58;100553.88;5116257;28;20052;-53
2021/07/05 05:52:16;;;;;;;1.02;1.00;;;25.90;48.20;;;29.71;32.37;100556.59;5115981;28;20048;-48
2021/07/05 05:54:42;;;;;;;1.02;1.00;;;25.90;48.20;;;29.71;32.55;100559.28;5115525;28;20051;-54
2021/07/05 05:57:24;;;;;;;1.17;1.15;;;25.90;48.20;;;29.70;32.44;100554.88;5115661;28;20047;-51
2021/07/05 05:59:51;;;;;;;0.90;0.90;;;26.00;48.30;;;29.72;32.38;100553.72;5097383;28;20126;-47
2021/07/05 06:02:17;;;;;;;0.98;0.98;;;26.00;48.30;;;29.70;32.67;100546.78;5115469;28;20077;-49
2021/07/05 06:04:42;;;;;;;1.00;1.00;;;26.00;48.30;;;29.74;32.37;100550.88;5115476;28;20119;-50
2021/07/05 06:07:08;;;;;;;0.90;0.90;;;26.00;48.20;;;29.73;32.40;100544.63;5115742;28;20128;-47
2021/07/05 06:09:34;;;;;;;1.42;1.33;;;26.00;48.20;;;29.74;32.31;100554.41;5115564;28;20376;-52
2021/07/05 06:12:00;;;;;;;1.15;1.05;;;26.00;48.20;;;29.75;32.50;100555.25;5115761;28;20065;-53
2021/07/05 06:14:25;;;;;;;1.20;1.10;;;26.00;48.20;;;29.71;32.61;100543.94;5115760;28;20040;-49
2021/07/05 06:16:51;;;;;;;1.00;1.00;;;26.00;48.20;;;29.75;32.51;100557.94;5115285;28;20039;-53
2021/07/05 06:19:17;;;;;;;1.15;1.10;;;26.00;48.20;;;29.72;32.27;100553.72;5114384;28;20052;-48
2021/07/05 06:21:43;;;;;;;0.98;0.98;;;26.00;48.20;;;29.74;32.36;100558.97;5115098;28;20181;-54
2021/07/05 06:24:08;;;;;;;1.27;1.17;;;26.00;48.20;;;29.70;32.55;100550.34;5114710;28;20059;-49
2021/07/05 06:26:34;;;;;;;1.15;1.08;;;26.00;48.20;;;29.74;32.34;100556.25;5114376;28;20096;-50
2021/07/05 06:29:00;;;;;;;1.25;1.15;;;26.00;48.30;;;29.74;32.34;100562.50;5115436;28;20050;-48
2021/07/05 06:31:26;;;;;;;1.25;1.15;;;26.00;48.20;;;29.72;32.38;100555.56;5115010;28;20140;-50
2021/07/05 06:33:51;;;;;;;0.88;0.88;;;26.00;48.20;;;29.74;32.62;100565.19;5096667;28;20487;-46
2021/07/05 06:36:17;;;;;;;1.20;1.10;;;26.00;48.30;;;29.72;32.60;100553.72;5115321;28;20039;-50
2021/07/05 06:38:43;;;;;;;1.00;1.00;;;26.00;48.20;;;29.74;32.52;100562.50;5114756;28;20040;-48
2021/07/05 06:41:09;;;;;;;1.10;1.00;;;26.00;48.20;;;29.75;32.55;100561.50;5115061;28;20112;-47
2021/07/05 06:43:35;;;;;;;1.27;1.17;;;26.00;48.20;;;29.75;32.26;100556.09;5114972;28;20445;-50
2021/07/05 06:46:01;;;;;;;1.30;1.20;;;26.00;48.20;;;29.79;32.30;100556.66;5115161;28;20055;-48
2021/07/05 06:48:27;;;;;;;1.20;1.13;;;26.00;48.60;;;29.77;32.55;100549.69;5114798;28;20039;-52
2021/07/05 06:50:53;;;;;;;1.23;1.20;;;26.10;48.20;;;29.86;32.36;100559.56;5114550;28;20411;-49
2021/07/05 06:53:18;;;;;;;1.55;1.45;;;26.10;48.60;;;29.87;32.44;100556.69;5114755;28;20130;-53
2021/07/05 06:55:44;;;;;;;1.05;1.02;;;26.20;48.10;;;29.92;32.38;100559.75;5114389;28;20051;-52
2021/07/05 06:58:10;;;;;;;0.98;0.98;;;26.20;48.00;;;29.92;32.25;100553.50;5114738;28;20134;-50
2021/07/05 07:00:36;;;;;;;1.02;1.00;;;26.20;48.40;;;29.96;32.18;100560.25;5114475;28;20083;-53
2021/07/05 07:03:05;;;;;;;1.30;1.20;;;26.20;47.90;;;29.98;32.01;100560.94;5095796;28;20546;-51
2021/07/05 07:05:33;;;;;;;1.33;1.23;;;26.20;47.90;;;29.97;31.96;100553.00;5114472;28;20040;-50
2021/07/05 07:07:59;;;;;;;3.33;1.40;;;26.20;47.90;;;29.97;32.31;100553.00;5114270;28;20410;-51
2021/07/05 07:10:26;;;;;;;1.92;1.50;;;26.20;48.00;;;29.99;32.30;100554.56;5114088;28;20373;-47
2021/07/05 07:12:55;;;;;;;2.03;1.50;;;26.20;48.00;;;29.99;32.32;100553.69;5112798;28;20460;-51
2021/07/05 07:15:29;;;;;;;2.42;1.48;;;26.20;48.00;;;30.03;32.23;100558.59;5113196;28;20403;-50
2021/07/05 07:20:39;;;;;;;3.65;1.70;;;26.30;48.10;;;30.08;32.23;100553.56;5114418;28;20079;-48
2021/07/05 07:23:05;;;;;;;7.57;1.85;;;26.30;48.00;;;30.10;32.23;100556.09;5114811;28;20493;-47
2021/07/05 07:25:30;;;;;;;6.22;1.98;;;26.30;48.10;;;30.13;32.10;100545.00;5114445;28;20043;-51
2021/07/05 07:27:56;;;;;;;5.18;1.77;;;26.30;48.10;;;30.13;32.16;100544.16;5114130;28;20059;-49
2021/07/05 07:30:22;;;;;;;6.00;1.83;;;26.30;48.00;;;30.17;32.14;100543.69;5114117;28;20043;-49
2021/07/05 07:32:48;;;;;;;5.07;2.00;;;26.30;48.00;;;30.18;32.00;100531.88;5114353;28;20479;-48
2021/07/05 07:35:16;;;;;;;7.15;1.83;;;26.30;48.00;;;30.19;32.19;100527.31;5114062;28;20047;-51
2021/07/05 07:37:47;;;;;;;6.75;2.28;;;26.40;48.10;;;30.22;32.16;100535.06;5113511;28;20051;-53
2021/07/05 07:40:29;;;;;;;8.75;2.17;;;26.40;48.10;;;30.24;31.98;100527.69;5114027;28;20067;-49
2021/07/05 07:42:55;;;;;;;9.10;2.40;;;26.50;48.10;;;30.28;32.11;100529.88;5113848;28;20495;-48
2021/07/05 07:45:21;;;;;;;7.53;2.17;;;26.40;48.00;;;30.26;32.06;100534.59;5095428;28;20059;-50
2021/07/05 07:47:47;;;;;;;8.88;2.90;;;26.40;48.10;;;30.28;32.16;100540.66;5114173;28;20050;-52
2021/07/05 07:50:16;;;;;;;8.10;2.53;;;26.40;48.10;;;30.23;32.20;100539.47;5113839;28;20051;-48
2021/07/05 07:52:44;;;;;;;5.72;2.20;;;26.40;48.20;;;30.23;32.01;100543.00;5095519;28;20064;-50
2021/07/05 07:55:13;;;;;;;10.05;2.80;;;26.40;48.20;;;-147.20;100.00;58430.41;5113619;28;20052;-51
2021/07/05 07:57:41;;;;;;;8.43;2.25;;;26.40;48.30;;;-147.20;100.00;58430.41;5113985;28;20047;-48
2021/07/05 08:00:10;;;;;;;5.22;2.15;;;26.50;48.20;;;-147.20;100.00;58430.41;5113485;28;20043;-50
2021/07/05 08:02:39;;;;;;;8.02;2.13;;;26.50;48.00;;;-147.20;100.00;58430.41;5113491;28;20063;-48
2021/07/05 08:05:07;;;;;;;5.68;2.25;;;26.50;47.90;;;-147.20;100.00;58430.41;5113628;28;20040;-53
2021/07/05 08:07:36;;;;;;;10.50;2.25;;;26.60;47.80;;;-147.20;100.00;58430.41;5112574;28;20176;-51
2021/07/05 08:10:05;;;;;;;6.78;2.50;;;26.70;47.80;;;-147.20;100.00;58430.41;5111695;28;20132;-50
2021/07/05 08:12:30;;;;;;;6.90;2.40;;;26.80;47.70;;;-147.20;100.00;58430.41;5113411;28;20104;-46
2021/07/05 08:14:56;;;;;;;4.70;2.40;;;26.90;47.50;;;-147.20;100.00;58430.41;5113375;28;20053;-48
2021/07/05 08:17:22;;;;;;;4.97;2.00;;;27.00;47.60;;;-147.20;100.00;58430.41;5113129;28;20051;-50
2021/07/05 08:19:48;;;;;;;7.13;2.70;;;27.10;47.60;;;-147.20;100.00;58430.41;5113238;28;20056;-47
2021/07/05 08:22:14;;;;;;;7.20;2.25;;;27.10;47.50;;;-147.20;100.00;58430.41;5113707;28;20043;-48
2021/07/05 08:24:40;;;;;;;8.20;2.50;;;27.10;47.40;;;31.16;31.11;100516.84;5113102;28;20047;-49
2021/07/05 08:27:06;;;;;;;9.27;2.53;;;27.10;47.30;;;31.11;31.09;100509.25;5113307;28;20092;-45
2021/07/05 08:29:32;;;;;;;6.05;2.00;;;27.10;47.20;;;31.13;31.19;100519.88;5113406;28;20048;-48
2021/07/05 08:31:58;;;;;;;4.43;1.90;;;27.10;47.20;;;31.14;31.10;100518.84;5113381;28;20059;-52
2021/07/05 08:34:23;;;;;;;4.78;2.15;;;27.10;47.20;;;31.15;30.97;100526.78;5094736;28;20054;-51
2021/07/05 08:36:49;;;;;;;3.90;2.17;;;27.10;47.20;;;31.16;30.96;100522.25;5113068;28;20130;-48
2021/07/05 08:39:15;;;;;;;3.38;2.08;;;27.10;47.10;;;31.17;31.05;100515.81;5113223;28;20048;-47
2021/07/05 08:41:41;;;;;;;4.07;2.42;;;27.10;47.10;;;31.19;30.92;100522.75;5113344;28;20046;-45
2021/07/05 08:44:07;;;;;;;2.42;1.88;;;27.20;47.10;;;31.17;30.77;100521.22;5112852;28;20059;-46
2021/07/05 08:46:34;;;;;;;3.78;1.92;;;27.20;47.10;;;31.20;30.91;100531.66;5112946;28;20046;-49
2021/07/05 08:49:00;;;;;;;4.85;2.08;;;27.20;47.00;;;31.23;30.98;100530.50;5111922;28;20059;-50
2021/07/05 08:51:27;;;;;;;3.00;1.92;;;27.20;47.00;;;31.23;30.81;100525.09;5113124;28;20444;-48
2021/07/05 08:53:53;;;;;;;4.88;2.00;;;27.20;46.90;;;31.26;30.92;100525.59;5112821;28;20050;-53
2021/07/05 08:56:21;;;;;;;4.10;2.10;;;27.20;46.90;;;31.26;30.78;100522.91;5113093;28;20411;-51
2021/07/05 08:58:47;;;;;;;6.40;2.42;;;27.20;46.80;;;31.28;30.74;100528.97;5112724;28;20514;-51
2021/07/05 09:01:15;;;;;;;4.03;1.92;;;27.30;46.80;;;31.29;30.82;100532.50;5112970;28;20094;-51
2021/07/05 09:03:41;;;;;;;4.18;1.95;;;27.20;46.70;;;31.28;30.77;100536.22;5112648;28;20047;-51
2021/07/05 09:06:20;;;;;;;3.22;2.03;;;27.30;46.80;;;31.27;30.76;100539.94;5112781;28;20518;-53
2021/07/05 09:08:59;;;;;;;4.43;2.00;;;27.20;46.70;;;31.28;30.77;100536.22;5112933;28;20044;-49
2021/07/05 09:11:44;;;;;;;3.65;2.00;;;27.20;46.70;;;31.31;30.86;100530.50;5112735;28;20071;-50
2021/07/05 09:14:17;;;;;;;3.83;1.90;;;27.30;46.80;;;31.32;30.69;100527.59;5113125;28;20044;-48
2021/07/05 09:16:45;;;;;;;6.50;2.25;;;27.30;46.70;;;31.35;30.69;100527.25;5112849;28;20043;-48
2021/07/05 09:19:21;;;;;;;5.85;2.00;;;27.30;46.60;;;31.34;30.67;100520.19;5112551;28;20104;-51
2021/07/05 09:21:53;;;;;;;4.05;1.95;;;27.30;46.60;;;31.35;30.49;100523.72;5112848;28;20399;-51
2021/07/05 09:24:40;;;;;;;4.30;1.83;;;27.30;46.50;;;31.38;30.57;100524.22;5112984;28;20481;-51
2021/07/05 09:27:17;;;;;;;4.53;1.90;;;27.30;46.50;;;31.37;30.56;100524.38;5112391;28;20112;-50
2021/07/05 09:29:44;;;;;;;2.33;1.73;;;27.40;46.50;;;31.38;30.48;100520.66;5112334;28;20148;-51
2021/07/05 09:32:29;;;;;;;4.20;1.90;;;27.40;46.50;;;31.37;30.51;100527.06;5092128;28;20553;-51
2021/07/05 09:34:57;;;;;;;3.20;1.67;;;27.40;46.40;;;31.43;30.47;100534.50;5112279;28;20051;-49
2021/07/05 09:37:26;;;;;;;2.50;1.65;;;27.40;46.40;;;31.44;30.60;100524.53;5111929;28;20100;-50
2021/07/05 09:40:11;;;;;;;3.50;1.75;;;27.40;46.30;;;31.43;30.60;100522.88;5112231;28;20047;-48
2021/07/05 09:42:51;;;;;;;4.15;1.77;;;27.40;46.30;;;31.39;30.58;100520.50;5112280;28;20483;-50
2021/07/05 09:45:23;;;;;;;2.35;1.75;;;27.40;46.30;;;31.44;30.53;100530.81;5112579;28;20044;-50
2021/07/05 09:48:14;;;;;;;3.13;1.65;;;27.40;46.30;;;31.45;30.36;100532.47;5112445;28;20142;-50
2021/07/05 09:50:40;;;;;;;3.58;1.60;;;27.50;46.30;;;31.44;30.32;100520.00;5112193;28;20051;-48
2021/07/05 09:53:39;;;;;;;1.80;1.65;;;27.50;46.30;;;31.46;30.33;100527.91;5091614;28;20066;-51
2021/07/05 09:56:25;;;;;;;4.75;1.77;;;27.50;46.20;;;31.43;30.60;100529.09;5111916;28;20491;-50
2021/07/05 09:58:54;;;;;;;2.00;1.50;;;27.50;46.20;;;31.46;30.43;100533.31;5112207;28;20039;-51
2021/07/05 10:01:48;;;;;;;2.45;1.50;;;27.50;46.20;;;31.45;30.43;100527.06;5113281;28;20140;-54
2021/07/05 10:06:52;;;;;;;4.43;2.08;;;27.50;46.20;;;31.47;30.17;100532.28;5115641;28;20050;-50
2021/07/05 10:09:48;;;;;;;3.85;1.70;;;27.50;46.10;;;31.48;30.60;100532.13;5115504;28;20356;-52
2021/07/05 10:12:22;;;;;;;3.50;1.73;;;27.50;46.10;;;31.52;30.30;100527.25;5107029;28;20043;-49
2021/07/05 10:14:54;;;;;;;2.85;1.77;;;27.60;46.10;;;31.56;30.20;100534.84;5115163;28;20506;-51
2021/07/05 10:17:21;;;;;;;6.07;1.88;;;27.60;46.00;;;31.61;30.28;100534.31;5097171;28;20100;-47
2021/07/05 10:19:47;;;;;;;3.22;1.90;;;27.70;46.00;;;31.61;30.40;100534.31;5115046;28;20468;-48
2021/07/05 10:22:15;;;;;;;3.80;1.90;;;27.70;45.90;;;31.66;30.27;100536.47;5115093;28;20126;-49